createdAt,value
2023-05-15T00:01:24.554Z,100690.13
2023-05-15T00:03:52.804Z,100689.31
2023-05-15T00:06:24.660Z,100679.94
2023-05-15T00:08:52.393Z,100681.59
2023-05-15T00:11:20.203Z,100684.34
2023-05-15T00:13:47.955Z,100689.06
2023-05-15T00:16:15.782Z,100684.22
2023-05-15T00:18:43.526Z,100677.31
2023-05-15T00:21:11.266Z,100676.84
2023-05-15T00:23:40.250Z,100670.06
2023-05-15T00:26:07.862Z,100672.44
2023-05-15T00:28:35.436Z,100666.63
2023-05-15T00:31:03.094Z,100667.34
2023-05-15T00:33:31.094Z,100664.59
2023-05-15T00:35:58.860Z,100668.19
2023-05-15T00:38:26.539Z,100659.75
2023-05-15T00:40:56.796Z,100665.66
2023-05-15T00:43:27.260Z,100660.19
2023-05-15T00:45:55.357Z,100661.03
2023-05-15T00:48:25.368Z,100656.88
2023-05-15T00:50:53.101Z,100658.31
2023-05-15T00:53:20.839Z,100654.72
2023-05-15T00:55:48.544Z,100653.56
2023-05-15T00:58:18.166Z,100665.44
2023-05-15T01:00:47.426Z,100658.19
2023-05-15T01:03:15.333Z,100660.31
2023-05-15T01:05:43.245Z,100657.47
2023-05-15T01:08:21.614Z,100650.81
2023-05-15T01:10:50.199Z,100648.06
2023-05-15T01:13:21.192Z,100656.41
2023-05-15T01:15:49.893Z,100649.16
2023-05-15T01:18:17.788Z,100642.16
2023-05-15T01:21:07.379Z,100649.03
2023-05-15T01:23:46.829Z,100646.88
2023-05-15T01:26:35.796Z,100648.06
2023-05-15T01:29:13.372Z,100645.81
2023-05-15T01:31:44.273Z,100644.16
2023-05-15T01:34:12.770Z,100643.59
2023-05-15T01:36:47.197Z,100639.75
2023-05-15T01:39:17.873Z,100636.69
2023-05-15T01:41:52.118Z,100642.59
2023-05-15T01:44:27.153Z,100633.84
2023-05-15T01:46:58.667Z,100635.38
2023-05-15T01:49:29.021Z,100633.56
2023-05-15T01:52:00.673Z,100636.06
2023-05-15T01:54:30.773Z,100630.59
2023-05-15T01:57:00.032Z,100631.91
2023-05-15T01:59:30.552Z,100626.44
2023-05-15T02:01:59.330Z,100625.88
2023-05-15T02:04:27.578Z,100624.19
2023-05-15T02:06:56.781Z,100624.16
2023-05-15T02:09:24.955Z,100625.16
2023-05-15T02:11:52.866Z,100622.69
2023-05-15T02:14:21.530Z,100620.56
2023-05-15T02:16:51.240Z,100617.44
2023-05-15T02:19:19.085Z,100612.88
2023-05-15T02:21:46.851Z,100608.03
2023-05-15T02:24:14.546Z,100611.50
2023-05-15T02:26:50.947Z,100609.47
2023-05-15T02:29:21.651Z,100612.44
2023-05-15T02:32:00.523Z,100609.56
2023-05-15T02:34:35.672Z,100607.44
2023-05-15T02:37:05.646Z,100609.88
2023-05-15T02:39:35.367Z,100602.94
2023-05-15T02:42:03.706Z,100596.84
2023-05-15T02:44:32.724Z,100597.91
2023-05-15T02:47:02.820Z,100594.59
2023-05-15T02:49:30.726Z,100598.47
2023-05-15T02:51:58.618Z,100582.94
2023-05-15T02:54:26.680Z,100590.78
2023-05-15T02:56:54.728Z,100594.59
2023-05-15T02:59:23.007Z,100583.91
2023-05-15T03:01:50.828Z,100587.94
2023-05-15T03:04:19.826Z,100586.28
2023-05-15T03:06:47.503Z,100587.63
2023-05-15T03:09:15.204Z,100586.66
2023-05-15T03:11:43.013Z,100580.16
2023-05-15T03:14:10.803Z,100582.16
2023-05-15T03:16:38.922Z,100576.09
2023-05-15T03:19:06.884Z,100578.25
2023-05-15T03:21:35.877Z,100581.56
2023-05-15T03:24:03.774Z,100581.56
2023-05-15T03:26:31.363Z,100579.88
2023-05-15T03:28:59.151Z,100577.28
2023-05-15T03:31:26.807Z,100576.84
2023-05-15T03:33:54.771Z,100569.72
2023-05-15T03:36:25.244Z,100570.63
2023-05-15T03:38:54.206Z,100558.44
2023-05-15T03:41:22.338Z,100563.66
2023-05-15T03:43:50.188Z,100560.25
2023-05-15T03:46:18.166Z,100564.25
2023-05-15T03:48:45.983Z,100559.72
2023-05-15T03:51:14.061Z,100560.34
2023-05-15T03:53:42.019Z,100557.84
2023-05-15T03:56:11.569Z,100564.81
2023-05-15T03:58:41.665Z,100561.13
2023-05-15T04:01:09.660Z,100566.44
2023-05-15T04:03:37.424Z,100570.00
2023-05-15T04:06:05.776Z,100567.53
2023-05-15T04:08:33.632Z,100566.09
2023-05-15T04:11:01.661Z,100571.44
2023-05-15T04:13:30.643Z,100571.44
2023-05-15T04:15:59.806Z,100568.72
2023-05-15T04:18:27.506Z,100568.34
2023-05-15T04:20:55.137Z,100565.75
2023-05-15T04:23:22.767Z,100572.97
2023-05-15T04:25:53.664Z,100566.81
2023-05-15T04:28:21.773Z,100567.34
2023-05-15T04:30:50.876Z,100568.63
2023-05-15T04:33:18.541Z,100574.59
2023-05-15T04:35:46.356Z,100571.38
2023-05-15T04:38:13.982Z,100569.41
2023-05-15T04:40:41.671Z,100566.75
2023-05-15T04:43:09.361Z,100566.19
2023-05-15T04:45:37.309Z,100570.25
2023-05-15T04:48:07.059Z,100566.38
2023-05-15T04:50:34.752Z,100571.63
2023-05-15T04:53:02.412Z,100562.13
2023-05-15T04:55:31.655Z,100564.50
2023-05-15T04:57:59.429Z,100560.84
2023-05-15T05:00:27.315Z,100567.72
2023-05-15T05:02:54.968Z,100557.19
2023-05-15T05:05:24.222Z,100556.28
2023-05-15T05:07:52.182Z,100554.66
2023-05-15T05:10:19.998Z,100558.34
2023-05-15T05:12:47.597Z,100562.66
2023-05-15T05:15:15.385Z,100552.38
2023-05-15T05:17:43.111Z,100558.41
2023-05-15T05:20:13.270Z,100556.53
2023-05-15T05:22:42.760Z,100559.00
2023-05-15T05:25:11.054Z,100562.31
2023-05-15T05:27:38.772Z,100561.16
2023-05-15T05:30:08.683Z,100566.84
2023-05-15T05:32:36.520Z,100565.03
2023-05-15T05:35:04.876Z,100571.06
2023-05-15T05:37:32.518Z,100581.16
2023-05-15T05:40:01.517Z,100569.53
2023-05-15T05:42:30.099Z,100571.94
2023-05-15T05:44:57.818Z,100569.81
2023-05-15T05:47:25.432Z,100572.97
2023-05-15T05:49:55.051Z,100572.84
2023-05-15T05:52:22.770Z,100573.28
2023-05-15T05:54:50.631Z,100575.00
2023-05-15T05:57:19.674Z,100575.38
2023-05-15T05:59:47.375Z,100573.13
2023-05-15T06:02:15.058Z,100572.84
2023-05-15T06:04:42.881Z,100572.84
2023-05-15T06:07:10.808Z,100578.50
2023-05-15T06:09:38.399Z,100567.81
2023-05-15T06:12:08.393Z,100571.16
2023-05-15T06:14:37.536Z,100568.69
2023-05-15T06:17:06.344Z,100565.00
2023-05-15T06:19:34.094Z,100557.44
2023-05-15T06:22:01.935Z,100558.63
2023-05-15T06:24:29.665Z,100564.31
2023-05-15T06:26:57.505Z,100566.56
2023-05-15T06:29:25.627Z,100568.25
2023-05-15T06:31:54.786Z,100562.47
2023-05-15T06:34:22.390Z,100565.31
2023-05-15T06:36:51.854Z,100562.00
2023-05-15T06:39:20.098Z,100559.63
2023-05-15T06:41:47.728Z,100563.78
2023-05-15T06:44:15.740Z,100557.97
2023-05-15T06:46:43.487Z,100556.00
2023-05-15T06:49:12.564Z,100548.19
2023-05-15T06:51:40.230Z,100550.97
2023-05-15T06:54:08.192Z,100549.88
2023-05-15T06:56:35.945Z,100548.34
2023-05-15T06:59:03.872Z,100547.50
2023-05-15T07:01:32.248Z,100546.31
2023-05-15T07:04:00.024Z,100549.50
2023-05-15T07:06:29.128Z,100546.19
2023-05-15T07:08:56.880Z,100548.31
2023-05-15T07:11:24.484Z,100552.59
2023-05-15T07:13:53.042Z,100541.41
2023-05-15T07:16:20.782Z,100539.28
2023-05-15T07:18:48.662Z,100534.88
2023-05-15T07:21:16.526Z,100543.69
2023-05-15T07:23:45.586Z,100540.84
2023-05-15T07:26:20.091Z,100544.16
2023-05-15T07:28:55.530Z,100537.72
2023-05-15T07:31:23.480Z,100540.47
2023-05-15T07:33:51.181Z,100527.75
2023-05-15T07:36:18.775Z,100529.44
2023-05-15T07:38:47.905Z,100533.72
2023-05-15T07:41:15.591Z,100534.06
2023-05-15T07:43:43.283Z,100530.13
2023-05-15T07:46:11.417Z,100531.44
2023-05-15T07:48:39.224Z,100535.44
2023-05-15T07:51:07.522Z,100521.13
2023-05-15T07:53:35.151Z,100526.56
2023-05-15T07:56:04.375Z,100528.38
2023-05-15T07:58:33.968Z,100527.06
2023-05-15T08:01:01.806Z,100526.34
2023-05-15T08:03:29.643Z,100514.47
2023-05-15T08:05:57.285Z,100525.94
2023-05-15T08:08:24.996Z,100515.72
2023-05-15T08:10:52.697Z,100516.28
2023-05-15T08:13:21.809Z,100515.66
2023-05-15T08:15:49.446Z,100507.63
2023-05-15T08:18:17.205Z,100512.16
2023-05-15T08:20:44.896Z,100509.94
2023-05-15T08:23:15.050Z,100508.84
2023-05-15T08:25:42.704Z,100503.03
2023-05-15T08:28:11.004Z,100498.22
2023-05-15T08:30:40.110Z,100503.56
2023-05-15T08:33:07.785Z,100503.63
2023-05-15T08:35:35.669Z,100502.56
2023-05-15T08:38:04.456Z,100490.97
2023-05-15T08:40:39.303Z,100498.75
2023-05-15T08:43:14.971Z,100492.31
2023-05-15T08:45:44.760Z,100494.63
2023-05-15T08:48:15.284Z,100491.63
2023-05-15T08:50:44.501Z,100483.16
2023-05-15T08:53:13.713Z,100491.19
2023-05-15T08:55:42.467Z,100479.78
2023-05-15T08:58:10.636Z,100484.31
2023-05-15T09:00:38.651Z,100474.09
2023-05-15T09:03:07.943Z,100478.66
2023-05-15T09:05:37.990Z,100482.00
2023-05-15T09:08:09.081Z,100482.28
2023-05-15T09:10:37.113Z,100477.66
2023-05-15T09:13:07.399Z,100470.31
2023-05-15T09:15:37.164Z,100474.72
2023-05-15T09:18:07.845Z,100476.75
2023-05-15T09:20:36.804Z,100471.03
2023-05-15T09:23:06.570Z,100469.66
2023-05-15T09:25:39.364Z,100472.94
2023-05-15T09:28:08.111Z,100480.66
2023-05-15T09:30:38.994Z,100474.75
2023-05-15T09:33:10.003Z,100470.41
2023-05-15T09:35:39.184Z,100463.78
2023-05-15T09:38:10.274Z,100468.63
2023-05-15T09:40:40.579Z,100468.53
2023-05-15T09:43:10.999Z,100467.00
2023-05-15T09:45:38.848Z,100460.38
2023-05-15T09:48:11.840Z,100464.75
2023-05-15T09:50:40.964Z,100468.69
2023-05-15T09:53:12.997Z,100458.38
2023-05-15T09:55:42.993Z,100456.72
2023-05-15T09:58:12.649Z,100456.47
2023-05-15T10:00:47.530Z,100459.00
2023-05-15T10:03:20.215Z,100454.09
2023-05-15T10:05:48.197Z,100449.78
2023-05-15T10:08:16.846Z,100453.13
2023-05-15T10:10:45.531Z,100445.47
2023-05-15T10:13:13.277Z,100447.69
2023-05-15T10:15:43.022Z,100445.84
2023-05-15T10:18:11.801Z,100442.88
2023-05-15T10:20:41.473Z,100426.16
2023-05-15T10:23:11.580Z,100433.56
2023-05-15T10:25:43.540Z,100442.38
2023-05-15T10:28:13.112Z,100417.41
2023-05-15T10:30:41.229Z,100436.38
2023-05-15T10:33:09.587Z,100423.75
2023-05-15T10:35:39.281Z,100419.94
2023-05-15T10:38:08.472Z,100424.91
2023-05-15T10:40:38.949Z,100422.19
2023-05-15T10:43:10.168Z,100418.41
2023-05-15T10:45:38.154Z,100421.44
2023-05-15T10:48:12.363Z,100412.41
2023-05-15T10:50:40.519Z,100411.03
2023-05-15T10:53:10.467Z,100403.13
2023-05-15T10:55:38.513Z,100404.22
2023-05-15T10:58:09.852Z,100406.69
2023-05-15T11:00:43.202Z,100397.94
2023-05-15T11:03:15.006Z,100397.94
2023-05-15T11:06:08.268Z,100394.91
2023-05-15T11:08:37.432Z,100391.59
2023-05-15T11:11:05.365Z,100392.97
2023-05-15T11:14:10.654Z,100393.00
2023-05-15T11:17:05.223Z,100386.16
2023-05-15T11:19:35.811Z,100384.56
2023-05-15T11:22:17.575Z,100374.41
2023-05-15T11:24:54.991Z,100372.22
2023-05-15T11:27:24.349Z,100374.16
2023-05-15T11:30:07.503Z,100371.97
2023-05-15T11:33:00.671Z,100371.72
2023-05-15T11:35:30.598Z,100365.91
2023-05-15T11:38:00.381Z,100372.25
2023-05-15T11:40:31.082Z,100364.06
2023-05-15T11:43:04.318Z,100369.56
2023-05-15T11:45:33.926Z,100376.97
2023-05-15T11:48:03.572Z,100355.25
2023-05-15T11:50:33.778Z,100360.19
2023-05-15T11:53:06.381Z,100360.22
2023-05-15T11:55:38.321Z,100359.38
2023-05-15T11:58:07.187Z,100358.84
2023-05-15T12:00:35.044Z,100356.66
2023-05-15T12:03:03.911Z,100352.81
2023-05-15T12:05:31.862Z,100354.25
2023-05-15T12:07:59.696Z,100356.66
2023-05-15T12:10:27.770Z,100347.28
2023-05-15T12:12:56.933Z,100350.31
2023-05-15T12:15:24.926Z,100348.13
2023-05-15T12:17:52.654Z,100354.50
2023-05-15T12:20:20.600Z,100355.06
2023-05-15T12:22:48.296Z,100345.69
2023-05-15T12:25:17.757Z,100346.53
2023-05-15T12:27:45.795Z,100358.34
2023-05-15T12:30:16.257Z,100346.81
2023-05-15T12:32:44.651Z,100343.78
2023-05-15T12:35:13.044Z,100346.25
2023-05-15T12:37:43.111Z,100342.66
2023-05-15T12:40:11.743Z,100341.28
2023-05-15T12:42:41.188Z,100344.00
2023-05-15T12:45:15.757Z,100355.00
2023-05-15T12:47:44.978Z,100347.56
2023-05-15T12:50:14.692Z,100342.34
2023-05-15T12:52:48.039Z,100344.00
2023-05-15T12:55:19.506Z,100345.88
2023-05-15T12:57:47.423Z,100344.53
2023-05-15T13:00:17.353Z,100339.84
2023-05-15T13:02:46.103Z,100342.31
2023-05-15T13:05:14.816Z,100339.28
2023-05-15T13:07:44.114Z,100342.03
2023-05-15T13:10:13.318Z,100337.66
2023-05-15T13:12:44.924Z,100335.16
2023-05-15T13:15:26.171Z,100326.13
2023-05-15T13:17:57.464Z,100335.75
2023-05-15T13:20:25.591Z,100331.34
2023-05-15T13:22:53.385Z,100325.28
2023-05-15T13:25:21.878Z,100331.63
2023-05-15T13:27:50.031Z,100336.28
2023-05-15T13:30:18.736Z,100330.78
2023-05-15T13:32:48.076Z,100328.03
2023-05-15T13:35:16.370Z,100323.09
2023-05-15T13:37:44.398Z,100332.16
2023-05-15T13:40:13.380Z,100318.69
2023-05-15T13:42:42.789Z,100317.59
2023-05-15T13:45:12.099Z,100326.38
2023-05-15T13:47:40.522Z,100330.25
2023-05-15T13:50:11.927Z,100322.81
2023-05-15T13:52:40.712Z,100326.97
2023-05-15T13:55:10.429Z,100323.06
2023-05-15T13:57:38.797Z,100318.50
2023-05-15T14:00:07.848Z,100316.88
2023-05-15T14:02:35.592Z,100320.31
2023-05-15T14:05:04.573Z,100325.81
2023-05-15T14:07:33.559Z,100319.25
2023-05-15T14:10:01.368Z,100331.88
2023-05-15T14:12:29.255Z,100336.19
2023-05-15T14:14:57.052Z,100333.66
2023-05-15T14:17:25.323Z,100341.75
2023-05-15T14:19:53.196Z,100342.91
2023-05-15T14:22:24.556Z,100340.16
2023-05-15T14:24:55.022Z,100348.16
2023-05-15T14:27:23.401Z,100354.50
2023-05-15T14:29:52.297Z,100359.72
2023-05-15T14:32:21.833Z,100349.78
2023-05-15T14:34:50.657Z,100348.69
2023-05-15T14:37:19.622Z,100353.91
2023-05-15T14:39:47.920Z,100355.03
2023-05-15T14:42:17.378Z,100337.44
2023-05-15T14:44:45.073Z,100342.41
2023-05-15T14:47:13.997Z,100346.53
2023-05-15T14:49:42.261Z,100338.00
2023-05-15T14:52:11.548Z,100337.13
2023-05-15T14:54:40.174Z,100339.88
2023-05-15T14:57:08.819Z,100337.13
2023-05-15T14:59:37.835Z,100330.78
2023-05-15T15:02:07.455Z,100333.00
2023-05-15T15:04:35.088Z,100329.41
2023-05-15T15:07:05.485Z,100325.03
2023-05-15T15:09:33.166Z,100328.31
2023-05-15T15:12:01.318Z,100337.38
2023-05-15T15:14:28.963Z,100334.94
2023-05-15T15:16:58.064Z,100338.53
2023-05-15T15:19:25.824Z,100341.81
2023-05-15T15:21:53.675Z,100342.94
2023-05-15T15:24:21.388Z,100333.56
2023-05-15T15:26:49.016Z,100343.47
2023-05-15T15:29:16.950Z,100348.16
2023-05-15T15:31:44.939Z,100333.28
2023-05-15T15:34:14.223Z,100331.91
2023-05-15T15:36:43.459Z,100341.00
2023-05-15T15:39:13.083Z,100330.81
2023-05-15T15:41:40.932Z,100326.97
2023-05-15T15:44:08.597Z,100331.38
2023-05-15T15:46:36.678Z,100341.28
2023-05-15T15:49:06.489Z,100345.41
2023-05-15T15:51:36.146Z,100341.81
2023-05-15T15:54:04.167Z,100348.41
2023-05-15T15:56:32.088Z,100351.16
2023-05-15T15:59:00.180Z,100369.28
2023-05-15T16:01:28.722Z,100378.88
2023-05-15T16:03:57.177Z,100391.75
2023-05-15T16:06:25.212Z,100397.41
2023-05-15T16:08:56.651Z,100402.56
2023-05-15T16:11:24.879Z,100412.59
2023-05-15T16:13:53.712Z,100412.78
2023-05-15T16:16:22.109Z,100419.84
2023-05-15T16:18:50.017Z,100432.56
2023-05-15T16:21:18.080Z,100426.88
2023-05-15T16:23:46.182Z,100422.47
2023-05-15T16:26:15.209Z,100421.16
2023-05-15T16:28:42.898Z,100417.69
2023-05-15T16:31:10.796Z,100409.84
2023-05-15T16:33:38.627Z,100422.84
2023-05-15T16:36:06.918Z,100417.13
2023-05-15T16:38:34.708Z,100410.84
2023-05-15T16:41:03.513Z,100410.53
2023-05-15T16:43:32.724Z,100415.53
2023-05-15T16:46:00.602Z,100410.84
2023-05-15T16:48:28.762Z,100404.34
2023-05-15T16:50:56.802Z,100413.44
2023-05-15T16:53:24.660Z,100406.72
2023-05-15T16:55:52.289Z,100406.59
2023-05-15T16:58:20.226Z,100410.78
2023-05-15T17:00:50.138Z,100411.84
2023-05-15T17:03:18.941Z,100405.28
2023-05-15T17:05:48.742Z,100405.06
2023-05-15T17:08:16.698Z,100419.66
2023-05-15T17:10:44.432Z,100419.13
2023-05-15T17:13:12.453Z,100405.97
2023-05-15T17:15:40.135Z,100405.13
2023-05-15T17:18:10.042Z,100411.16
2023-05-15T17:20:37.964Z,100412.81
2023-05-15T17:23:05.698Z,100409.72
2023-05-15T17:25:33.817Z,100415.19
2023-05-15T17:28:01.894Z,100410.56
2023-05-15T17:30:29.608Z,100411.38
2023-05-15T17:32:57.638Z,100430.00
2023-05-15T17:35:26.863Z,100429.94
2023-05-15T17:37:54.748Z,100434.84
2023-05-15T17:40:22.727Z,100438.16
2023-05-15T17:42:50.733Z,100441.53
2023-05-15T17:45:18.401Z,100437.31
2023-05-15T17:47:46.291Z,100445.72
2023-05-15T17:50:14.488Z,100460.19
2023-05-15T17:52:43.701Z,100452.88
2023-05-15T17:55:11.557Z,100465.00
2023-05-15T17:57:39.281Z,100466.84
2023-05-15T18:00:08.798Z,100470.06
2023-05-15T18:02:36.881Z,100471.59
2023-05-15T18:05:08.528Z,100468.84
2023-05-15T18:07:36.265Z,100479.66
2023-05-15T18:10:06.698Z,100479.66
2023-05-15T18:12:35.239Z,100482.81
2023-05-15T18:15:03.516Z,100487.78
2023-05-15T18:17:31.983Z,100487.47
2023-05-15T18:20:01.706Z,100494.19
2023-05-15T18:22:29.832Z,100495.34
2023-05-15T18:24:57.761Z,100497.69
2023-05-15T18:27:26.970Z,100501.75
2023-05-15T18:29:55.084Z,100509.72
2023-05-15T18:32:22.975Z,100520.22
2023-05-15T18:34:50.804Z,100519.53
2023-05-15T18:37:18.507Z,100525.41
2023-05-15T18:39:47.887Z,100531.50
2023-05-15T18:42:16.064Z,100536.06
2023-05-15T18:44:46.411Z,100532.22
2023-05-15T18:47:14.243Z,100534.78
2023-05-15T18:49:42.198Z,100543.97
2023-05-15T18:52:10.648Z,100545.44
2023-05-15T18:54:40.561Z,100545.44
2023-05-15T18:57:09.151Z,100546.75
2023-05-15T18:59:37.166Z,100556.38
2023-05-15T19:02:07.080Z,100560.19
2023-05-15T19:04:35.078Z,100557.84
2023-05-15T19:07:02.940Z,100560.94
2023-05-15T19:09:31.562Z,100570.94
2023-05-15T19:12:00.534Z,100569.53
2023-05-15T19:14:28.224Z,100577.94
2023-05-15T19:16:56.136Z,100574.28
2023-05-15T19:19:26.300Z,100584.16
2023-05-15T19:21:54.890Z,100584.66
2023-05-15T19:24:22.721Z,100586.78
2023-05-15T19:26:50.842Z,100592.00
2023-05-15T19:29:18.828Z,100594.47
2023-05-15T19:31:46.706Z,100597.03
2023-05-15T19:34:14.537Z,100603.50
2023-05-15T19:36:46.030Z,100603.13
2023-05-15T19:39:13.724Z,100609.69
2023-05-15T19:41:42.363Z,100610.91
2023-05-15T19:44:10.320Z,100624.81
2023-05-15T19:46:39.194Z,100629.91
2023-05-15T19:49:07.714Z,100627.88
2023-05-15T19:51:36.185Z,100628.22
2023-05-15T19:54:05.827Z,100632.34
2023-05-15T19:56:33.924Z,100637.03
2023-05-15T19:59:01.808Z,100627.56
2023-05-15T20:01:29.803Z,100636.69
2023-05-15T20:03:57.988Z,100645.91
2023-05-15T20:06:26.174Z,100646.91
2023-05-15T20:08:54.204Z,100652.59
2023-05-15T20:11:24.011Z,100651.41
2023-05-15T20:13:53.223Z,100660.06
2023-05-15T20:16:21.802Z,100660.06
2023-05-15T20:18:55.561Z,100667.72
2023-05-15T20:21:23.272Z,100666.97
2023-05-15T20:23:51.104Z,100679.88
2023-05-15T20:26:19.954Z,100680.94
2023-05-15T20:28:48.986Z,100684.75
2023-05-15T20:31:16.655Z,100689.00
2023-05-15T20:33:44.578Z,100679.69
2023-05-15T20:36:12.863Z,100690.91
2023-05-15T20:38:41.234Z,100688.81
2023-05-15T20:41:08.831Z,100691.16
2023-05-15T20:43:36.853Z,100694.94
2023-05-15T20:46:08.736Z,100695.00
2023-05-15T20:48:36.950Z,100701.13
2023-05-15T20:51:04.722Z,100709.44
2023-05-15T20:53:32.553Z,100698.47
2023-05-15T20:56:00.850Z,100708.72
2023-05-15T20:58:28.798Z,100706.81
2023-05-15T21:00:58.183Z,100709.59
2023-05-15T21:03:27.401Z,100713.84
2023-05-15T21:05:56.976Z,100711.06
2023-05-15T21:08:25.394Z,100715.69
2023-05-15T21:10:55.335Z,100711.66
2023-05-15T21:13:23.053Z,100721.28
2023-05-15T21:15:51.482Z,100723.94
2023-05-15T21:18:19.475Z,100724.44
2023-05-15T21:20:48.416Z,100726.09
2023-05-15T21:23:16.339Z,100733.75
2023-05-15T21:25:44.694Z,100732.22
2023-05-15T21:28:12.415Z,100726.81
2023-05-15T21:30:40.182Z,100729.81
2023-05-15T21:33:08.332Z,100739.44
2023-05-15T21:35:36.224Z,100738.63
2023-05-15T21:38:05.415Z,100737.22
2023-05-15T21:40:33.430Z,100742.56
2023-05-15T21:43:01.386Z,100738.94
2023-05-15T21:45:30.469Z,100748.16
2023-05-15T21:47:58.486Z,100741.97
2023-05-15T21:50:26.958Z,100745.25
2023-05-15T21:52:54.702Z,100745.03
2023-05-15T21:55:23.679Z,100755.88
2023-05-15T21:57:51.390Z,100753.31
2023-05-15T22:00:20.173Z,100752.22
2023-05-15T22:02:47.948Z,100751.13
2023-05-15T22:05:16.131Z,100745.50
2023-05-15T22:07:44.450Z,100746.97
2023-05-15T22:10:16.179Z,100741.22
2023-05-15T22:12:45.412Z,100742.94
2023-05-15T22:15:14.669Z,100749.44
2023-05-15T22:17:42.554Z,100742.09
2023-05-15T22:20:11.629Z,100737.09
2023-05-15T22:22:41.114Z,100735.63
2023-05-15T22:25:09.552Z,100742.75
2023-05-15T22:27:37.501Z,100736.31
2023-05-15T22:30:08.519Z,100746.16
2023-05-15T22:32:36.165Z,100745.91
2023-05-15T22:35:04.504Z,100754.50
2023-05-15T22:37:32.191Z,100753.59
2023-05-15T22:40:00.039Z,100755.09
2023-05-15T22:42:27.975Z,100756.41
2023-05-15T22:44:57.426Z,100754.31
2023-05-15T22:47:28.311Z,100748.19
2023-05-15T22:49:56.547Z,100750.72
2023-05-15T22:52:24.211Z,100758.69
2023-05-15T22:54:52.210Z,100755.56
2023-05-15T22:57:20.032Z,100763.47
2023-05-15T22:59:47.662Z,100762.63
2023-05-15T23:02:15.412Z,100772.06
2023-05-15T23:04:44.427Z,100771.00
2023-05-15T23:07:12.292Z,100766.59
2023-05-15T23:09:40.123Z,100766.16
2023-05-15T23:12:08.518Z,100770.78
2023-05-15T23:14:36.304Z,100766.81
2023-05-15T23:17:04.194Z,100764.31
2023-05-15T23:19:32.133Z,100757.59
2023-05-15T23:22:02.145Z,100769.13
2023-05-15T23:24:29.994Z,100773.28
2023-05-15T23:26:57.673Z,100766.81
2023-05-15T23:29:25.589Z,100779.16
2023-05-15T23:31:53.592Z,100775.81
2023-05-15T23:34:21.400Z,100777.28
2023-05-15T23:36:49.370Z,100772.91
2023-05-15T23:39:18.418Z,100780.22
2023-05-15T23:41:46.163Z,100773.16
2023-05-15T23:44:13.955Z,100786.56
2023-05-15T23:46:41.632Z,100783.22
2023-05-15T23:49:09.748Z,100785.72
2023-05-15T23:51:37.750Z,100787.38
2023-05-15T23:54:05.773Z,100789.06
2023-05-15T23:56:34.989Z,100792.63
2023-05-15T23:59:02.789Z,100798.28
